Strona główna
METAR-TAF:

METAR-TAF

Lotnisko :

Port lotniczy Jakuck

Jakuck, Rosja

Szerokość geograficzna: 62-01N, Długość geograficzna: 129-43E, wysokość: 103 m

Aktualna obserwacja pogody

Raport powstał 40 minut temu, godzina 11:30 UTC
Wiatr 4 kt od wschodnio-południowy wschód
Temperatura 21°C
Wilgotność 56%
Ciśnienie 1005 hPa
Widzialność 10 km lub więcej
Mało chmury na wysokości 5000 ft, Cumulonimbus.

METAR: UEEE 161130Z 12002MPS 9999 FEW050CB 21/12 Q1005 R23L/09//60 NOSIG RMK QFE745

czas: 21:10 (12:10 UTC)

Prognoza

Raport powstał 1 godzina i 10 minut temu, godzina 11:00 UTC
Prognoza ważna od 16 godzina 12 UTC do 17 godzina 18 UTC
Wiatr 8 kt od południowy wschód w porywach dochodzący do 19 kt
Widzialność 10 km lub więcej
Rozproszone chmury na wysokości 3300 ft
Zachmurzenie całkowite na wysokości 10000 ft

TAF: UEEE 161100Z 1612/1718 14004G10MPS 9999 SCT033 OVC100

Obserwacja i prognoza pogody dla ponad 4000 lotnisk (raport METAR i TAF).

Dostępne stacje oznaczono żółtymi i czerwonymi punktami na mapie.

Najedź kursorem aby zobaczyć nazwę stacji.

Kliknij aby zobaczyć obserwacje i prognozy pogody.

Aby zmienić mapę: kliknij na zielony przycisk z czarnym krzyżykiem, aby powiększyć; na zielony przycisk z myślnikiem, aby pomniejszyć; na zielone strzałki, aby przejść do map sąsiednich.


METAR-TAF: